createdAt,value
2023-04-16T00:01:08.350Z,99769.38
2023-04-16T00:04:11.791Z,99778.81
2023-04-16T00:07:14.702Z,99770.41
2023-04-16T00:10:17.884Z,99767.47
2023-04-16T00:13:21.435Z,99763.81
2023-04-16T00:16:24.547Z,99762.47
2023-04-16T00:19:29.280Z,99754.47
2023-04-16T00:22:32.565Z,99766.69
2023-04-16T00:25:35.342Z,99764.97
2023-04-16T00:28:39.699Z,99759.19
2023-04-16T00:31:42.669Z,99765.19
2023-04-16T00:34:46.570Z,99763.94
2023-04-16T00:37:49.365Z,99768.56
2023-04-16T00:40:52.644Z,99762.06
2023-04-16T00:43:56.280Z,99771.19
2023-04-16T00:46:59.937Z,99769.31
2023-04-16T00:50:04.595Z,99762.78
2023-04-16T00:53:09.468Z,99761.22
2023-04-16T00:56:13.141Z,99766.03
2023-04-16T00:59:16.912Z,99760.47
2023-04-16T01:02:19.840Z,99761.09
2023-04-16T01:05:26.639Z,99765.97
2023-04-16T01:08:29.748Z,99774.13
2023-04-16T01:11:33.336Z,99772.25
2023-04-16T01:14:36.654Z,99774.34
2023-04-16T01:17:41.479Z,99771.50
2023-04-16T01:20:45.644Z,99773.06
2023-04-16T01:23:48.876Z,99773.59
2023-04-16T01:26:51.833Z,99778.28
2023-04-16T01:29:57.153Z,99778.63
2023-04-16T01:33:02.148Z,99781.84
2023-04-16T01:36:05.700Z,99793.84
2023-04-16T01:39:11.924Z,99786.72
2023-04-16T01:42:15.631Z,99779.78
2023-04-16T01:45:20.820Z,99778.66
2023-04-16T01:48:29.332Z,99771.50
2023-04-16T01:51:32.518Z,99768.00
2023-04-16T01:54:37.976Z,99769.34
2023-04-16T01:57:41.981Z,99785.19
2023-04-16T02:00:46.424Z,99792.47
2023-04-16T02:03:50.920Z,99785.47
2023-04-16T02:06:54.031Z,99801.00
2023-04-16T02:09:58.131Z,99804.72
2023-04-16T02:13:01.238Z,99804.00
2023-04-16T02:16:04.556Z,99798.03
2023-04-16T02:19:10.381Z,99799.69
2023-04-16T02:22:13.946Z,99795.03
2023-04-16T02:25:17.077Z,99796.06
2023-04-16T02:28:21.928Z,99799.41
2023-04-16T02:31:24.857Z,99796.44
2023-04-16T02:34:31.276Z,99800.72
2023-04-16T02:37:35.089Z,99792.88
2023-04-16T02:40:38.564Z,99783.62
2023-04-16T02:43:41.265Z,99781.47
2023-04-16T02:46:44.650Z,99775.38
2023-04-16T02:49:49.388Z,99786.38
2023-04-16T02:52:55.291Z,99792.91
2023-04-16T02:55:58.242Z,99793.84
2023-04-16T02:59:02.242Z,99798.53
2023-04-16T03:02:05.043Z,99797.97
2023-04-16T03:05:10.337Z,99788.75
2023-04-16T03:08:14.713Z,99791.22
2023-04-16T03:11:18.542Z,99791.09
2023-04-16T03:14:21.521Z,99795.66
2023-04-16T03:17:26.566Z,99799.88
2023-04-16T03:20:29.752Z,99799.16
2023-04-16T03:23:36.066Z,99812.13
2023-04-16T03:26:40.821Z,99816.06
2023-04-16T03:29:44.873Z,99827.09
2023-04-16T03:32:50.549Z,99835.38
2023-04-16T03:35:58.802Z,99841.37
2023-04-16T03:39:05.611Z,99835.97
2023-04-16T03:42:10.342Z,99843.81
2023-04-16T03:45:16.715Z,99850.16
2023-04-16T03:48:20.257Z,99853.16
2023-04-16T03:51:24.556Z,99857.94
2023-04-16T03:54:28.058Z,99860.66
2023-04-16T03:57:36.219Z,99860.53
2023-04-16T04:00:43.204Z,99849.94
2023-04-16T04:03:49.899Z,99851.59
2023-04-16T04:06:56.999Z,99846.44
2023-04-16T04:10:03.346Z,99853.06
2023-04-16T04:13:11.019Z,99858.84
2023-04-16T04:16:15.418Z,99859.00
2023-04-16T04:19:20.145Z,99865.91
2023-04-16T04:22:24.218Z,99866.91
2023-04-16T04:25:29.402Z,99874.91
2023-04-16T04:28:35.533Z,99888.09
2023-04-16T04:31:38.561Z,99885.66
2023-04-16T04:34:41.819Z,99888.22
2023-04-16T04:37:45.724Z,99893.78
2023-04-16T04:40:51.029Z,99893.31
2023-04-16T04:43:57.063Z,99892.16
2023-04-16T04:47:02.943Z,99892.72
2023-04-16T04:50:08.569Z,99891.41
2023-04-16T04:53:17.831Z,99888.78
2023-04-16T04:56:22.596Z,99893.31
2023-04-16T04:59:33.959Z,99893.41
2023-04-16T05:02:38.673Z,99893.06
2023-04-16T05:05:42.919Z,99897.50
2023-04-16T05:08:46.000Z,99892.44
2023-04-16T05:11:49.665Z,99887.44
2023-04-16T05:14:58.851Z,99892.88
2023-04-16T05:18:03.745Z,99888.03
2023-04-16T05:21:06.894Z,99893.53
2023-04-16T05:24:10.047Z,99907.31
2023-04-16T05:27:12.919Z,99908.25
2023-04-16T05:30:18.165Z,99917.19
2023-04-16T05:33:24.272Z,99921.38
2023-04-16T05:36:27.836Z,99921.38
2023-04-16T05:39:30.773Z,99934.97
2023-04-16T05:42:36.805Z,99930.97
2023-04-16T05:45:41.397Z,99934.22
2023-04-16T05:48:46.355Z,99934.75
2023-04-16T05:51:50.856Z,99940.31
2023-04-16T05:55:01.888Z,99939.66
2023-04-16T05:58:06.815Z,99943.53
2023-04-16T06:01:32.798Z,99938.38
2023-04-16T06:05:00.790Z,99941.38
2023-04-16T06:08:35.079Z,99938.44
2023-04-16T06:12:02.608Z,99938.38
2023-04-16T06:15:29.395Z,99935.84
2023-04-16T06:18:32.851Z,99935.16
2023-04-16T06:21:35.976Z,99940.25
2023-04-16T06:25:12.145Z,99939.50
2023-04-16T06:28:49.283Z,99939.44
2023-04-16T06:32:23.528Z,99926.47
2023-04-16T06:35:32.645Z,99920.72
2023-04-16T06:39:18.437Z,99933.91
2023-04-16T06:42:45.643Z,99923.81
2023-04-16T06:46:23.767Z,99922.34
2023-04-16T06:49:51.981Z,99924.25
2023-04-16T06:53:49.142Z,99927.09
2023-04-16T06:57:14.379Z,99928.81
2023-04-16T07:00:26.728Z,99938.56
2023-04-16T07:07:25.312Z,99928.44
2023-04-16T07:10:47.892Z,99929.62
2023-04-16T07:14:34.534Z,99935.31
2023-04-16T07:18:02.492Z,99934.97
2023-04-16T07:21:20.286Z,99936.06
2023-04-16T07:24:52.749Z,99933.63
2023-04-16T07:35:34.088Z,99932.59
2023-04-16T07:39:18.529Z,99930.03
2023-04-16T07:42:33.210Z,99931.72
2023-04-16T07:46:16.918Z,99944.19
2023-04-16T07:49:48.969Z,99947.13
2023-04-16T07:53:15.596Z,99941.81
2023-04-16T07:59:57.650Z,99945.25
2023-04-16T08:03:48.948Z,99938.75
2023-04-16T08:07:13.040Z,99945.50
2023-04-16T08:10:20.297Z,99948.66
2023-04-16T08:14:04.314Z,99943.06
2023-04-16T08:17:18.665Z,99944.16
2023-04-16T08:20:38.647Z,99944.19
2023-04-16T08:23:42.452Z,99950.47
2023-04-16T08:26:49.888Z,99959.19
2023-04-16T08:30:09.477Z,99962.25
2023-04-16T08:33:19.700Z,99961.72
2023-04-16T08:36:26.477Z,99962.66
2023-04-16T08:39:32.396Z,99970.25
2023-04-16T08:42:53.019Z,99958.25
2023-04-16T08:46:01.359Z,99961.25
2023-04-16T08:49:09.572Z,99963.97
2023-04-16T08:52:20.449Z,99964.78
2023-04-16T09:02:16.900Z,99972.19
2023-04-16T09:05:25.709Z,99974.03
2023-04-16T09:08:29.949Z,99981.78
2023-04-16T09:11:34.624Z,99986.78
2023-04-16T09:14:39.146Z,99988.16
2023-04-16T09:17:43.386Z,99999.22
2023-04-16T09:20:47.652Z,100001.19
2023-04-16T09:23:53.616Z,99997.28
2023-04-16T09:26:57.500Z,99988.59
2023-04-16T09:30:04.186Z,100001.31
2023-04-16T09:33:13.243Z,99998.63
2023-04-16T09:36:23.363Z,99997.50
2023-04-16T09:39:27.498Z,100003.28
2023-04-16T09:42:32.416Z,100014.78
2023-04-16T09:45:51.751Z,100003.66
2023-04-16T09:48:56.613Z,100008.25
2023-04-16T09:52:00.099Z,100006.31
2023-04-16T09:55:03.362Z,100002.56
2023-04-16T09:58:06.460Z,100001.69
2023-04-16T10:01:11.537Z,100000.97
2023-04-16T10:04:16.165Z,99994.91
2023-04-16T10:07:19.666Z,99997.12
2023-04-16T10:10:23.441Z,99994.72
2023-04-16T10:13:31.114Z,99994.37
2023-04-16T10:16:35.543Z,99975.66
2023-04-16T10:19:41.581Z,99985.19
2023-04-16T10:22:45.271Z,99976.66
2023-04-16T10:25:52.369Z,99973.91
2023-04-16T10:28:55.848Z,99978.25
2023-04-16T10:32:00.425Z,99972.06
2023-04-16T10:35:05.365Z,99967.66
2023-04-16T10:38:28.587Z,99971.81
2023-04-16T10:41:33.659Z,99976.78
2023-04-16T10:44:36.680Z,99961.44
2023-04-16T10:47:45.322Z,99956.28
2023-04-16T10:51:01.283Z,99964.34
2023-04-16T10:54:09.231Z,99953.31
2023-04-16T10:57:21.509Z,99953.06
2023-04-16T11:00:29.490Z,99963.41
2023-04-16T11:03:32.655Z,99955.19
2023-04-16T11:06:37.750Z,99955.00
2023-04-16T11:09:50.459Z,99950.09
2023-04-16T11:12:57.293Z,99947.97
2023-04-16T11:16:01.753Z,99951.25
2023-04-16T11:19:05.272Z,99945.03
2023-04-16T11:22:08.749Z,99941.88
2023-04-16T11:25:13.672Z,99943.34
2023-04-16T11:28:16.528Z,99946.97
2023-04-16T11:31:20.087Z,99947.25
2023-04-16T11:34:26.504Z,99946.41
2023-04-16T11:37:36.554Z,99933.37
2023-04-16T11:40:42.549Z,99942.94
2023-04-16T11:43:47.099Z,99934.44
2023-04-16T11:46:54.836Z,99938.50
2023-04-16T11:50:15.242Z,99935.25
2023-04-16T11:53:18.631Z,99929.62
2023-04-16T11:56:35.983Z,99933.63
2023-04-16T12:00:02.474Z,99937.50
2023-04-16T12:03:15.927Z,99934.78
2023-04-16T12:06:21.881Z,99924.09
2023-04-16T12:09:30.016Z,99927.81
2023-04-16T12:12:35.752Z,99923.09
2023-04-16T12:15:49.019Z,99926.53
2023-04-16T12:19:06.361Z,99922.16
2023-04-16T12:22:10.157Z,99924.16
2023-04-16T12:25:20.759Z,99914.00
2023-04-16T12:28:34.140Z,99918.84
2023-04-16T12:31:39.887Z,99918.69
2023-04-16T12:34:52.052Z,99915.06
2023-04-16T12:37:55.999Z,99908.91
2023-04-16T12:41:00.139Z,99913.28
2023-04-16T12:44:22.107Z,99903.53
2023-04-16T12:47:27.547Z,99894.50
2023-04-16T12:50:32.625Z,99901.84
2023-04-16T12:53:36.794Z,99889.50
2023-04-16T12:56:39.762Z,99886.69
2023-04-16T12:59:43.127Z,99880.44
2023-04-16T13:02:47.740Z,99894.56
2023-04-16T13:05:51.239Z,99885.88
2023-04-16T13:08:54.517Z,99887.19
2023-04-16T13:11:57.210Z,99884.59
2023-04-16T13:15:00.556Z,99878.94
2023-04-16T13:18:03.517Z,99874.19
2023-04-16T13:21:06.974Z,99878.50
2023-04-16T13:24:12.756Z,99874.50
2023-04-16T13:27:17.002Z,99863.28
2023-04-16T13:30:20.331Z,99866.72
2023-04-16T13:33:23.552Z,99870.69
2023-04-16T13:36:27.783Z,99860.03
2023-04-16T13:39:33.798Z,99858.47
2023-04-16T13:42:37.304Z,99861.22
2023-04-16T13:45:42.057Z,99856.69
2023-04-16T13:48:46.499Z,99852.81
2023-04-16T13:51:51.224Z,99849.09
2023-04-16T13:54:54.920Z,99854.59
2023-04-16T13:57:58.977Z,99847.69
2023-04-16T14:01:02.100Z,99849.09
2023-04-16T14:04:09.177Z,99843.53
2023-04-16T14:07:15.212Z,99846.91
2023-04-16T14:10:19.202Z,99855.22
2023-04-16T14:13:22.030Z,99847.22
2023-04-16T14:16:25.286Z,99849.88
2023-04-16T14:19:28.350Z,99852.25
2023-04-16T14:22:32.773Z,99846.25
2023-04-16T14:25:35.921Z,99853.75
2023-04-16T14:28:41.793Z,99856.75
2023-04-16T14:31:48.399Z,99849.56
2023-04-16T14:34:52.689Z,99844.41
2023-04-16T14:37:56.430Z,99837.72
2023-04-16T14:41:11.927Z,99834.72
2023-04-16T14:44:15.682Z,99834.16
2023-04-16T14:47:21.485Z,99831.47
2023-04-16T14:50:27.975Z,99831.78
2023-04-16T14:53:32.760Z,99829.09
2023-04-16T14:56:36.091Z,99831.00
2023-04-16T14:59:40.008Z,99827.53
2023-04-16T15:02:44.814Z,99828.25
2023-04-16T15:05:55.374Z,99819.28
2023-04-16T15:08:58.689Z,99820.63
2023-04-16T15:12:03.306Z,99816.53
2023-04-16T15:15:07.880Z,99819.13
2023-04-16T15:18:11.457Z,99809.94
2023-04-16T15:21:24.293Z,99812.13
2023-04-16T15:25:24.599Z,99818.41
2023-04-16T15:33:06.614Z,99815.03
2023-04-16T15:36:52.302Z,99809.13
2023-04-16T15:44:14.388Z,99818.06
2023-04-16T15:47:17.366Z,99818.63
2023-04-16T15:50:22.006Z,99820.78
2023-04-16T15:53:24.875Z,99823.13
2023-04-16T15:56:28.188Z,99817.78
2023-04-16T15:59:33.632Z,99819.13
2023-04-16T16:02:40.393Z,99820.16
2023-04-16T16:09:06.795Z,99815.97
2023-04-16T16:12:10.374Z,99825.34
2023-04-16T16:15:15.323Z,99826.19
2023-04-16T16:18:19.877Z,99829.56
2023-04-16T16:21:25.164Z,99827.72
2023-04-16T16:24:28.921Z,99831.50
2023-04-16T16:27:32.098Z,99836.53
2023-04-16T16:30:35.468Z,99838.19
2023-04-16T16:33:40.120Z,99838.84
2023-04-16T16:36:46.557Z,99833.87
2023-04-16T16:39:51.741Z,99832.34
2023-04-16T16:42:56.946Z,99838.84
2023-04-16T16:46:01.145Z,99823.88
2023-04-16T16:49:11.545Z,99834.66
2023-04-16T16:52:18.916Z,99837.81
2023-04-16T16:55:24.906Z,99833.19
2023-04-16T16:58:28.008Z,99844.84
2023-04-16T17:01:38.034Z,99843.16
2023-04-16T17:04:41.179Z,99844.12
2023-04-16T17:07:44.834Z,99844.78
2023-04-16T17:10:48.260Z,99845.78
2023-04-16T17:13:51.976Z,99840.81
2023-04-16T17:17:01.617Z,99850.59
2023-04-16T17:20:14.480Z,99860.41
2023-04-16T17:23:21.195Z,99857.72
2023-04-16T17:26:37.795Z,99858.22
2023-04-16T17:30:05.012Z,99864.66
2023-04-16T17:33:17.470Z,99855.00
2023-04-16T17:36:23.273Z,99854.00
2023-04-16T17:39:27.287Z,99861.25
2023-04-16T17:42:30.525Z,99864.03
2023-04-16T17:45:36.615Z,99868.53
2023-04-16T17:48:39.708Z,99862.81
2023-04-16T17:51:44.694Z,99863.47
2023-04-16T17:54:48.678Z,99868.81
2023-04-16T17:57:52.255Z,99869.44
2023-04-16T18:00:55.866Z,99874.50
2023-04-16T18:04:00.486Z,99875.59
2023-04-16T18:07:05.064Z,99876.06
2023-04-16T18:10:09.509Z,99875.84
2023-04-16T18:13:12.862Z,99867.56
2023-04-16T18:16:19.954Z,99871.31
2023-04-16T18:19:23.518Z,99868.28
2023-04-16T18:22:28.631Z,99878.44
2023-04-16T18:25:34.938Z,99881.16
2023-04-16T18:28:39.582Z,99885.06
2023-04-16T18:31:43.044Z,99884.72
2023-04-16T18:34:46.584Z,99885.25
2023-04-16T18:37:49.678Z,99887.75
2023-04-16T18:40:53.284Z,99880.53
2023-04-16T18:43:56.695Z,99884.72
2023-04-16T18:46:59.973Z,99881.22
2023-04-16T18:50:03.770Z,99880.09
2023-04-16T18:53:10.761Z,99872.09
2023-04-16T18:56:20.863Z,99876.59
2023-04-16T18:59:42.789Z,99873.19
2023-04-16T19:02:54.377Z,99874.09
2023-04-16T19:06:02.049Z,99877.97
2023-04-16T19:09:11.281Z,99878.63
2023-04-16T19:12:21.622Z,99873.94
2023-04-16T19:15:32.648Z,99883.69
2023-04-16T19:18:39.521Z,99875.19
2023-04-16T19:21:42.851Z,99878.63
2023-04-16T19:24:49.133Z,99876.16
2023-04-16T19:27:52.283Z,99866.56
2023-04-16T19:30:56.369Z,99862.16
2023-04-16T19:33:59.753Z,99864.13
2023-04-16T19:37:04.504Z,99870.00
2023-04-16T19:40:10.016Z,99870.84
2023-04-16T19:43:15.218Z,99872.37
2023-04-16T19:46:18.320Z,99863.22
2023-04-16T19:49:24.776Z,99861.53
2023-04-16T19:52:28.489Z,99854.31
2023-04-16T19:55:35.003Z,99855.31
2023-04-16T19:58:39.463Z,99859.50
2023-04-16T20:01:43.171Z,99861.06
2023-04-16T20:04:48.557Z,99859.91
2023-04-16T20:07:57.988Z,99860.75
2023-04-16T20:11:05.536Z,99852.84
2023-04-16T20:17:50.962Z,99869.09
2023-04-16T20:21:25.292Z,99856.56
2023-04-16T20:24:32.414Z,99847.06
2023-04-16T20:27:35.592Z,99844.69
2023-04-16T20:30:39.764Z,99842.31
2023-04-16T20:33:43.125Z,99840.50
2023-04-16T20:36:46.755Z,99846.34
2023-04-16T20:39:50.500Z,99838.84
2023-04-16T20:42:55.304Z,99837.59
2023-04-16T20:45:58.164Z,99839.53
2023-04-16T20:49:01.960Z,99837.03
2023-04-16T20:52:07.397Z,99842.19
2023-04-16T20:55:10.586Z,99834.34
2023-04-16T20:58:13.608Z,99847.19
2023-04-16T21:01:18.289Z,99857.25
2023-04-16T21:04:21.307Z,99849.31
2023-04-16T21:07:38.017Z,99826.41
2023-04-16T21:10:41.222Z,99827.25
2023-04-16T21:13:44.494Z,99822.75
2023-04-16T21:16:47.299Z,99824.75
2023-04-16T21:19:50.498Z,99822.09
2023-04-16T21:22:56.814Z,99823.94
2023-04-16T21:25:59.862Z,99826.59
2023-04-16T21:29:02.548Z,99831.06
2023-04-16T21:32:05.842Z,99831.22
2023-04-16T21:35:09.019Z,99826.19
2023-04-16T21:38:11.893Z,99814.16
2023-04-16T21:41:14.681Z,99828.41
2023-04-16T21:44:17.790Z,99821.72
2023-04-16T21:47:20.379Z,99833.59
2023-04-16T21:50:24.178Z,99834.84
2023-04-16T21:53:31.963Z,99824.66
2023-04-16T21:56:34.891Z,99820.91
2023-04-16T21:59:38.372Z,99810.75
2023-04-16T22:02:42.917Z,99816.59
2023-04-16T22:05:46.567Z,99817.16
2023-04-16T22:08:49.956Z,99821.91
2023-04-16T22:11:54.125Z,99820.38
2023-04-16T22:15:02.433Z,99816.31
2023-04-16T22:18:06.620Z,99816.19
2023-04-16T22:21:09.214Z,99808.09
2023-04-16T22:24:12.301Z,99798.91
2023-04-16T22:27:15.616Z,99799.03
2023-04-16T22:30:19.066Z,99799.41
2023-04-16T22:33:21.807Z,99799.16
2023-04-16T22:36:24.965Z,99798.47
2023-04-16T22:39:28.658Z,99794.56
2023-04-16T22:42:31.729Z,99794.94
2023-04-16T22:45:34.702Z,99792.31
2023-04-16T22:48:40.481Z,99791.47
2023-04-16T22:51:43.656Z,99798.47
2023-04-16T22:54:46.786Z,99783.66
2023-04-16T22:57:49.363Z,99786.63
2023-04-16T23:00:52.986Z,99786.88
2023-04-16T23:03:55.889Z,99783.81
2023-04-16T23:06:58.868Z,99779.63
2023-04-16T23:10:01.746Z,99782.00
2023-04-16T23:13:04.819Z,99780.87
2023-04-16T23:16:07.840Z,99775.44
2023-04-16T23:19:14.821Z,99773.63
2023-04-16T23:22:17.671Z,99772.94
2023-04-16T23:25:22.450Z,99768.34
2023-04-16T23:28:25.622Z,99765.00
2023-04-16T23:31:28.650Z,99765.44
2023-04-16T23:34:32.183Z,99760.44
2023-04-16T23:37:35.295Z,99764.16
2023-04-16T23:40:38.364Z,99762.19
2023-04-16T23:43:41.641Z,99762.47
2023-04-16T23:46:44.365Z,99752.88
2023-04-16T23:49:47.361Z,99761.00
2023-04-16T23:52:50.286Z,99757.19
2023-04-16T23:55:53.770Z,99746.06
2023-04-16T23:58:57.018Z,99749.69
